Time;durP1;ratioP1;P1;durP2;ratioP2;P2;SDS_P1;SDS_P2;PMS_P1;PMS_P2;Temp;Humidity;BMP_temperature;BMP_pressure;BME280_temperature;BME280_humidity;BME280_pressure;Samples;Min_cycle;Max_cycle;Signal;HPM_P1;HPM_P2
2022/11/14 00:02:27;;;;;;;17.07;15.37;;;;;;;;;;5072912;28;20441;-77
2022/11/14 00:04:55;;;;;;;16.40;14.70;;;;;;;;;;5072328;28;20453;-76
2022/11/14 00:07:22;;;;;;;18.10;14.53;;;;;;;;;;5073196;28;20472;-76
2022/11/14 00:09:49;;;;;;;17.30;15.50;;;;;;;;;;5073297;28;20456;-76
2022/11/14 00:12:16;;;;;;;16.87;15.20;;;;;;;;;;5072729;28;20448;-76
2022/11/14 00:14:43;;;;;;;17.83;15.93;;;;;;;;;;5072246;28;20456;-77
2022/11/14 00:17:10;;;;;;;15.90;14.30;;;;;;;;;;5071966;28;20452;-77
2022/11/14 00:19:38;;;;;;;18.83;15.30;;;;;;;;;;5072835;28;20448;-76
2022/11/14 00:22:05;;;;;;;20.63;16.40;;;;;;;;;;5072927;28;20950;-76
2022/11/14 00:24:32;;;;;;;18.67;15.90;;;;;;;;;;5072323;28;20475;-76
2022/11/14 00:27:00;;;;;;;16.30;14.30;;;;;;;;;;5072515;28;20451;-77
2022/11/14 00:29:27;;;;;;;16.10;14.33;;;;;;;;;;5072333;28;20445;-77
2022/11/14 00:31:54;;;;;;;17.20;15.40;;;;;;;;;;5072926;28;20452;-76
2022/11/14 00:34:21;;;;;;;16.77;15.00;;;;;;;;;;5072041;28;20495;-78
2022/11/14 00:36:49;;;;;;;16.47;14.77;;;;;;;;;;5072657;28;20544;-76
2022/11/14 00:39:16;;;;;;;16.10;14.40;;;;;;;;;;5072568;28;20441;-77
2022/11/14 00:41:43;;;;;;;16.37;14.67;;;;;;;;;;5072072;28;20441;-78
2022/11/14 00:44:11;;;;;;;16.00;14.40;;;;;;;;;;5069430;28;20460;-77
2022/11/14 00:46:38;;;;;;;18.23;15.40;;;;;;;;;;5071922;28;20445;-78
2022/11/14 00:49:05;;;;;;;16.00;14.40;;;;;;;;;;5071893;28;20476;-76
2022/11/14 00:51:32;;;;;;;18.13;15.30;;;;;;;;;;5071632;28;20449;-78
2022/11/14 00:54:00;;;;;;;15.20;13.60;;;;;;;;;;5073108;28;20461;-76
2022/11/14 00:56:27;;;;;;;16.40;14.80;;;;;;;;;;5079817;28;20455;-76
2022/11/14 00:58:55;;;;;;;15.50;13.90;;;;;;;;;;5073030;28;20441;-76
2022/11/14 01:01:22;;;;;;;16.07;14.30;;;;;;;;;;5071430;28;20445;-78
2022/11/14 01:03:49;;;;;;;17.40;15.57;;;;;;;;;;5070843;28;21043;-77
2022/11/14 01:06:16;;;;;;;14.80;13.30;;;;;;;;;;5071556;28;20449;-75
2022/11/14 01:08:43;;;;;;;15.30;13.70;;;;;;;;;;5074869;28;20543;-76
2022/11/14 01:11:13;;;;;;;14.73;13.30;;;;;;;;;;5074215;28;20443;-76
2022/11/14 01:13:40;;;;;;;16.17;14.57;;;;;;;;;;5072145;28;20814;-76
2022/11/14 01:16:08;;;;;;;16.57;14.80;;;;;;;;;;5073816;28;20441;-77
2022/11/14 01:18:36;;;;;;;14.30;12.80;;;;;;;;;;5071756;28;20444;-76
2022/11/14 01:21:05;;;;;;;15.07;13.47;;;;;;;;;;5071295;28;20464;-77
2022/11/14 01:23:32;;;;;;;16.60;14.40;;;;;;;;;;5070521;28;20526;-76
2022/11/14 01:26:01;;;;;;;16.63;14.97;;;;;;;;;;5071919;28;20476;-77
2022/11/14 01:28:30;;;;;;;14.90;13.20;;;;;;;;;;5071331;28;20499;-76
2022/11/14 01:30:57;;;;;;;15.67;13.80;;;;;;;;;;5071597;28;20444;-76
2022/11/14 01:33:24;;;;;;;15.93;14.23;;;;;;;;;;5068552;28;20461;-76
2022/11/14 01:35:51;;;;;;;17.63;14.60;;;;;;;;;;5070483;28;20432;-77
2022/11/14 01:38:18;;;;;;;16.20;14.60;;;;;;;;;;5069991;28;20443;-76
2022/11/14 01:40:45;;;;;;;15.67;14.03;;;;;;;;;;5055946;28;20447;-76
2022/11/14 01:43:26;;;;;;;15.77;14.13;;;;;;;;;;5070705;28;20460;-76
2022/11/14 01:45:56;;;;;;;18.50;15.70;;;;;;;;;;5074985;28;20967;-76
2022/11/14 01:48:25;;;;;;;14.80;13.07;;;;;;;;;;5089923;28;20499;-76
2022/11/14 01:50:55;;;;;;;15.57;13.97;;;;;;;;;;5094742;28;20441;-76
2022/11/14 01:53:22;;;;;;;16.40;14.83;;;;;;;;;;5093823;28;20448;-76
2022/11/14 01:55:49;;;;;;;16.03;14.30;;;;;;;;;;5094370;28;20911;-76
2022/11/14 01:58:16;;;;;;;15.80;14.10;;;;;;;;;;5094782;28;20439;-77
2022/11/14 02:00:44;;;;;;;17.47;14.40;;;;;;;;;;5087988;28;20439;-76
2022/11/14 02:03:14;;;;;;;14.90;13.40;;;;;;;;;;5071334;28;20476;-76
2022/11/14 02:05:41;;;;;;;16.47;14.07;;;;;;;;;;5071142;28;20826;-76
2022/11/14 02:08:10;;;;;;;18.33;15.37;;;;;;;;;;5070731;28;21004;-76
2022/11/14 02:10:37;;;;;;;19.10;15.47;;;;;;;;;;5070330;28;20449;-77
2022/11/14 02:13:04;;;;;;;15.97;14.27;;;;;;;;;;5069809;28;20520;-77
2022/11/14 02:15:31;;;;;;;16.03;14.40;;;;;;;;;;5070102;28;20444;-77
2022/11/14 02:17:58;;;;;;;17.60;15.70;;;;;;;;;;5070153;28;20456;-77
2022/11/14 02:20:28;;;;;;;17.17;15.37;;;;;;;;;;5069921;28;20459;-76
2022/11/14 02:22:55;;;;;;;18.50;16.57;;;;;;;;;;5069425;28;20472;-76
2022/11/14 02:25:22;;;;;;;17.27;15.37;;;;;;;;;;5070592;28;20427;-76
2022/11/14 02:27:50;;;;;;;18.00;14.43;;;;;;;;;;5070001;28;20489;-76
2022/11/14 02:30:18;;;;;;;16.77;14.90;;;;;;;;;;5071045;28;20948;-75
2022/11/14 02:32:45;;;;;;;17.10;15.17;;;;;;;;;;5070125;28;20467;-77
2022/11/14 02:35:12;;;;;;;17.57;15.83;;;;;;;;;;5070628;28;20453;-77
2022/11/14 02:37:42;;;;;;;19.13;17.13;;;;;;;;;;5070441;28;20451;-76
2022/11/14 02:40:10;;;;;;;18.33;15.30;;;;;;;;;;5071630;28;20451;-76
2022/11/14 02:42:37;;;;;;;16.80;14.90;;;;;;;;;;5073006;28;20443;-77
2022/11/14 02:45:04;;;;;;;81.90;56.93;;;;;;;;;;5073700;28;20978;-77
2022/11/14 02:47:31;;;;;;;36.40;29.47;;;;;;;;;;5073599;28;20448;-76
2022/11/14 02:49:58;;;;;;;22.07;17.83;;;;;;;;;;5073605;28;20455;-76
2022/11/14 02:52:25;;;;;;;21.03;17.27;;;;;;;;;;5073259;28;20467;-76
2022/11/14 02:54:54;;;;;;;17.90;15.97;;;;;;;;;;5073092;28;20951;-76
2022/11/14 02:57:21;;;;;;;16.83;15.13;;;;;;;;;;5073637;28;20788;-75
2022/11/14 02:59:48;;;;;;;17.60;15.53;;;;;;;;;;5073807;28;20932;-76
2022/11/14 03:02:15;;;;;;;17.47;14.60;;;;;;;;;;5073235;28;20970;-76
2022/11/14 03:04:42;;;;;;;17.73;14.63;;;;;;;;;;5072596;28;20472;-76
2022/11/14 03:07:09;;;;;;;14.87;13.30;;;;;;;;;;5073642;28;20440;-77
2022/11/14 03:09:36;;;;;;;14.77;13.20;;;;;;;;;;5073418;28;20490;-76
2022/11/14 03:12:04;;;;;;;16.17;14.33;;;;;;;;;;5073451;28;20442;-77
2022/11/14 03:14:32;;;;;;;17.80;15.23;;;;;;;;;;5073028;28;20460;-78
2022/11/14 03:16:59;;;;;;;16.90;15.13;;;;;;;;;;5076375;28;20442;-76
2022/11/14 03:19:26;;;;;;;17.27;14.37;;;;;;;;;;5080724;28;20447;-76
2022/11/14 03:21:53;;;;;;;15.00;13.43;;;;;;;;;;5080911;28;20474;-76
2022/11/14 03:24:20;;;;;;;17.43;15.30;;;;;;;;;;5078629;28;20482;-76
2022/11/14 03:26:47;;;;;;;16.47;14.33;;;;;;;;;;5079596;28;20440;-77
2022/11/14 03:29:15;;;;;;;15.87;14.17;;;;;;;;;;5073946;28;20501;-76
2022/11/14 03:31:43;;;;;;;15.10;13.50;;;;;;;;;;5073450;28;20800;-76
2022/11/14 03:34:10;;;;;;;16.30;13.60;;;;;;;;;;5073184;28;20471;-76
2022/11/14 03:36:37;;;;;;;17.03;14.53;;;;;;;;;;5077281;28;20455;-76
2022/11/14 03:39:05;;;;;;;17.20;14.00;;;;;;;;;;5081700;28;20451;-76
2022/11/14 03:41:32;;;;;;;16.37;14.23;;;;;;;;;;5099753;28;20432;-77
2022/11/14 03:43:59;;;;;;;17.80;14.27;;;;;;;;;;5099434;28;20561;-75
2022/11/14 03:46:27;;;;;;;14.40;12.90;;;;;;;;;;5099226;28;20448;-75
2022/11/14 03:48:54;;;;;;;17.33;14.47;;;;;;;;;;5092312;28;20464;-76
2022/11/14 03:51:22;;;;;;;15.77;13.60;;;;;;;;;;5079667;28;20458;-75
2022/11/14 03:53:49;;;;;;;15.57;13.60;;;;;;;;;;5076841;28;20477;-77
2022/11/14 03:56:16;;;;;;;18.13;14.60;;;;;;;;;;5072468;28;20455;-77
2022/11/14 03:58:43;;;;;;;15.33;13.67;;;;;;;;;;5072608;28;20448;-76
2022/11/14 04:01:10;;;;;;;15.43;13.73;;;;;;;;;;5073230;28;20447;-76
2022/11/14 04:03:38;;;;;;;17.87;13.87;;;;;;;;;;5072962;28;20468;-75
2022/11/14 04:06:05;;;;;;;17.50;14.47;;;;;;;;;;5073053;28;20454;-76
2022/11/14 04:08:33;;;;;;;16.97;14.00;;;;;;;;;;5073034;28;20484;-76
2022/11/14 04:11:00;;;;;;;16.00;13.93;;;;;;;;;;5073023;28;20451;-76
2022/11/14 04:13:27;;;;;;;16.90;13.97;;;;;;;;;;5061579;28;20467;-75
2022/11/14 04:15:57;;;;;;;16.43;13.20;;;;;;;;;;5052705;28;20457;-76
2022/11/14 04:18:24;;;;;;;17.40;14.10;;;;;;;;;;5052146;28;20443;-76
2022/11/14 04:20:53;;;;;;;16.70;14.97;;;;;;;;;;5052535;28;20445;-77
2022/11/14 04:23:20;;;;;;;15.93;13.73;;;;;;;;;;5051045;28;20828;-76
2022/11/14 04:25:48;;;;;;;18.73;16.37;;;;;;;;;;5070165;28;20928;-77
2022/11/14 04:28:15;;;;;;;20.27;17.10;;;;;;;;;;5071774;28;21119;-76
2022/11/14 04:30:43;;;;;;;21.10;17.27;;;;;;;;;;5072244;28;20445;-77
2022/11/14 04:33:11;;;;;;;19.73;17.60;;;;;;;;;;5071894;28;20558;-76
2022/11/14 04:35:38;;;;;;;21.20;17.50;;;;;;;;;;5072241;28;20443;-76
2022/11/14 04:38:06;;;;;;;20.13;16.90;;;;;;;;;;5071530;28;20888;-76
2022/11/14 04:40:33;;;;;;;23.30;19.67;;;;;;;;;;5071755;28;20452;-76
2022/11/14 04:43:00;;;;;;;22.00;18.70;;;;;;;;;;5070778;28;21002;-76
2022/11/14 04:45:27;;;;;;;19.67;17.57;;;;;;;;;;5075983;28;20452;-76
2022/11/14 04:47:54;;;;;;;21.70;17.80;;;;;;;;;;5076351;28;20448;-77
2022/11/14 04:50:21;;;;;;;20.00;18.00;;;;;;;;;;5074494;28;20494;-76
2022/11/14 04:52:52;;;;;;;22.60;19.37;;;;;;;;;;5071200;28;20469;-76
2022/11/14 04:55:20;;;;;;;20.10;17.30;;;;;;;;;;5072158;28;20432;-76
2022/11/14 04:57:47;;;;;;;20.10;18.00;;;;;;;;;;5072260;28;20839;-76
2022/11/14 05:00:15;;;;;;;21.37;19.17;;;;;;;;;;5071680;28;20784;-76
2022/11/14 05:02:42;;;;;;;23.10;20.23;;;;;;;;;;5070160;28;20467;-76
2022/11/14 05:05:09;;;;;;;23.50;19.70;;;;;;;;;;5071306;28;20443;-76
2022/11/14 05:07:37;;;;;;;22.33;19.10;;;;;;;;;;5071563;28;20439;-76
2022/11/14 05:10:04;;;;;;;20.10;18.00;;;;;;;;;;5070898;28;20479;-76
2022/11/14 05:12:32;;;;;;;23.97;19.70;;;;;;;;;;5070827;28;20978;-77
2022/11/14 05:14:59;;;;;;;22.57;20.17;;;;;;;;;;5070793;28;20956;-78
2022/11/14 05:17:27;;;;;;;22.33;19.60;;;;;;;;;;5071081;28;20452;-77
2022/11/14 05:19:54;;;;;;;20.50;18.40;;;;;;;;;;5070812;28;20920;-77
2022/11/14 05:22:21;;;;;;;21.97;19.63;;;;;;;;;;5071028;28;20455;-76
2022/11/14 05:24:48;;;;;;;29.60;23.00;;;;;;;;;;5069953;28;20463;-76
2022/11/14 05:27:15;;;;;;;21.03;18.83;;;;;;;;;;5070671;28;20443;-76
2022/11/14 05:29:43;;;;;;;20.60;18.40;;;;;;;;;;5070621;28;20483;-77
2022/11/14 05:32:10;;;;;;;20.70;18.60;;;;;;;;;;5070806;28;20445;-76
2022/11/14 05:34:37;;;;;;;22.57;18.67;;;;;;;;;;5069903;28;20462;-77
2022/11/14 05:37:05;;;;;;;18.20;16.30;;;;;;;;;;5070942;28;20449;-76
2022/11/14 05:39:32;;;;;;;20.63;17.97;;;;;;;;;;5071043;28;20446;-77
2022/11/14 05:41:59;;;;;;;19.87;17.87;;;;;;;;;;5071183;28;20443;-76
2022/11/14 05:44:26;;;;;;;19.93;17.83;;;;;;;;;;5070932;28;20495;-75
2022/11/14 05:46:54;;;;;;;21.30;17.57;;;;;;;;;;5071541;28;20844;-76
2022/11/14 05:49:21;;;;;;;20.37;16.50;;;;;;;;;;5073017;28;20472;-76
2022/11/14 05:51:48;;;;;;;18.37;16.37;;;;;;;;;;5067582;28;20951;-75
2022/11/14 05:54:15;;;;;;;19.37;17.30;;;;;;;;;;5073602;28;20475;-77
2022/11/14 05:56:42;;;;;;;18.77;16.87;;;;;;;;;;5073057;28;20546;-76
2022/11/14 05:59:09;;;;;;;19.53;17.47;;;;;;;;;;5073477;28;20440;-76
2022/11/14 06:01:37;;;;;;;19.90;17.10;;;;;;;;;;5075975;28;20990;-76
2022/11/14 06:04:07;;;;;;;19.60;17.07;;;;;;;;;;5072519;28;20486;-77
2022/11/14 06:06:34;;;;;;;17.03;15.33;;;;;;;;;;5070690;28;20538;-77
2022/11/14 06:09:01;;;;;;;18.90;15.73;;;;;;;;;;5070714;28;20518;-77
2022/11/14 06:11:28;;;;;;;19.30;17.23;;;;;;;;;;5073810;28;20955;-76
2022/11/14 06:13:55;;;;;;;19.67;17.60;;;;;;;;;;5073516;28;20464;-76
2022/11/14 06:16:22;;;;;;;18.00;16.17;;;;;;;;;;5070589;28;20977;-77
2022/11/14 06:18:49;;;;;;;19.17;17.17;;;;;;;;;;5070348;28;20440;-76
2022/11/14 06:21:19;;;;;;;19.10;17.07;;;;;;;;;;5070528;28;20450;-77
2022/11/14 06:23:47;;;;;;;18.30;16.30;;;;;;;;;;5070107;28;20487;-76
2022/11/14 06:26:20;;;;;;;25.10;16.40;;;;;;;;;;5080362;28;20448;-77
2022/11/14 06:28:48;;;;;;;16.83;15.03;;;;;;;;;;5096134;28;20464;-76
2022/11/14 06:31:15;;;;;;;16.20;14.50;;;;;;;;;;5097573;28;20432;-76
2022/11/14 06:33:42;;;;;;;15.67;13.90;;;;;;;;;;5094395;28;20460;-77
2022/11/14 06:36:10;;;;;;;26.40;21.60;;;;;;;;;;5078654;28;20451;-76
2022/11/14 06:38:39;;;;;;;16.70;14.90;;;;;;;;;;5072016;28;20448;-77
2022/11/14 06:41:07;;;;;;;15.80;14.20;;;;;;;;;;5070877;28;20440;-77
2022/11/14 06:43:34;;;;;;;18.60;15.27;;;;;;;;;;5070848;28;20467;-76
2022/11/14 06:46:01;;;;;;;18.57;14.03;;;;;;;;;;5070329;28;20447;-76
2022/11/14 06:48:30;;;;;;;13.90;12.30;;;;;;;;;;5070457;28;20459;-77
2022/11/14 06:50:58;;;;;;;15.77;13.30;;;;;;;;;;5070254;28;20448;-77
2022/11/14 06:53:25;;;;;;;13.07;11.77;;;;;;;;;;5069921;28;20483;-77
2022/11/14 06:55:55;;;;;;;15.80;13.23;;;;;;;;;;5070529;28;20439;-77
2022/11/14 06:58:23;;;;;;;13.93;12.43;;;;;;;;;;5082610;28;20435;-76
2022/11/14 07:00:50;;;;;;;14.07;12.67;;;;;;;;;;5092932;28;20413;-76
2022/11/14 07:03:17;;;;;;;16.10;14.40;;;;;;;;;;5095953;28;20539;-75
2022/11/14 07:05:44;;;;;;;15.73;13.83;;;;;;;;;;5096417;28;20453;-76
2022/11/14 07:08:11;;;;;;;16.40;14.80;;;;;;;;;;5096808;28;20432;-77
2022/11/14 07:10:38;;;;;;;17.10;14.77;;;;;;;;;;5094438;28;20475;-77
2022/11/14 07:13:08;;;;;;;16.70;14.97;;;;;;;;;;5076658;28;20474;-76
2022/11/14 07:15:35;;;;;;;19.10;15.30;;;;;;;;;;5072460;28;20476;-76
2022/11/14 07:18:02;;;;;;;16.17;14.53;;;;;;;;;;5070882;28;20445;-77
2022/11/14 07:20:29;;;;;;;17.10;15.27;;;;;;;;;;5070511;28;20942;-77
2022/11/14 07:22:56;;;;;;;18.30;13.50;;;;;;;;;;5069199;28;20480;-76
2022/11/14 07:25:23;;;;;;;16.73;15.00;;;;;;;;;;5069918;28;20451;-76
2022/11/14 07:27:50;;;;;;;17.47;15.70;;;;;;;;;;5073348;28;20443;-76
2022/11/14 07:30:19;;;;;;;18.97;14.73;;;;;;;;;;5073469;28;20487;-76
2022/11/14 07:32:46;;;;;;;16.20;14.50;;;;;;;;;;5073785;28;21240;-78
2022/11/14 07:35:13;;;;;;;15.40;13.83;;;;;;;;;;5073384;28;20440;-77
2022/11/14 07:37:40;;;;;;;16.50;14.67;;;;;;;;;;5073205;28;20443;-77
2022/11/14 07:40:08;;;;;;;17.20;13.37;;;;;;;;;;5073150;28;20451;-76
2022/11/14 07:42:35;;;;;;;16.07;14.47;;;;;;;;;;5072473;28;20805;-77
2022/11/14 07:45:02;;;;;;;20.40;15.63;;;;;;;;;;5073145;28;20451;-76
2022/11/14 07:47:30;;;;;;;18.70;16.80;;;;;;;;;;5073247;28;20437;-76
2022/11/14 07:49:57;;;;;;;17.47;15.67;;;;;;;;;;5072974;28;20487;-76
2022/11/14 07:52:25;;;;;;;18.53;16.60;;;;;;;;;;5072399;28;20448;-77
2022/11/14 07:54:52;;;;;;;18.33;16.30;;;;;;;;;;5071934;28;20452;-76
2022/11/14 07:57:19;;;;;;;22.50;16.20;;;;;;;;;;5072799;28;20920;-76
2022/11/14 07:59:46;;;;;;;20.00;16.13;;;;;;;;;;5073221;28;20459;-77
2022/11/14 08:02:14;;;;;;;20.30;17.50;;;;;;;;;;5071969;28;20444;-77
2022/11/14 08:04:42;;;;;;;22.03;17.97;;;;;;;;;;5071383;28;20460;-76
2022/11/14 08:07:09;;;;;;;21.33;18.43;;;;;;;;;;5072976;28;20441;-75
2022/11/14 08:09:37;;;;;;;25.00;20.30;;;;;;;;;;5072927;28;21001;-76
2022/11/14 08:12:04;;;;;;;21.27;17.90;;;;;;;;;;5072832;28;20467;-77
2022/11/14 08:14:31;;;;;;;20.47;17.40;;;;;;;;;;5071781;28;20468;-77
2022/11/14 08:16:58;;;;;;;20.10;15.60;;;;;;;;;;5072411;28;20444;-77
2022/11/14 08:19:25;;;;;;;16.37;14.70;;;;;;;;;;5064756;28;20459;-77
2022/11/14 08:21:53;;;;;;;16.27;14.10;;;;;;;;;;5071079;28;20432;-76
2022/11/14 08:24:21;;;;;;;16.60;14.90;;;;;;;;;;5071397;28;20467;-77
2022/11/14 08:26:48;;;;;;;17.37;15.40;;;;;;;;;;5072805;28;20440;-76
2022/11/14 08:29:15;;;;;;;15.67;13.77;;;;;;;;;;5072545;28;20447;-76
2022/11/14 08:31:42;;;;;;;18.13;14.80;;;;;;;;;;5072552;28;20816;-77
2022/11/14 08:34:09;;;;;;;18.13;15.53;;;;;;;;;;5072033;28;20472;-77
2022/11/14 08:36:36;;;;;;;16.10;14.30;;;;;;;;;;5072351;28;21179;-77
2022/11/14 08:39:05;;;;;;;18.23;14.93;;;;;;;;;;5071349;28;20441;-76
2022/11/14 08:41:32;;;;;;;16.43;14.40;;;;;;;;;;5072089;28;20933;-77
2022/11/14 08:43:59;;;;;;;16.57;14.87;;;;;;;;;;5071549;28;20465;-77
2022/11/14 08:46:26;;;;;;;19.60;15.30;;;;;;;;;;5072140;28;20444;-77
2022/11/14 08:48:53;;;;;;;19.73;15.30;;;;;;;;;;5072581;28;20538;-77
2022/11/14 08:51:20;;;;;;;20.03;16.83;;;;;;;;;;5072377;28;20484;-77
2022/11/14 08:53:47;;;;;;;16.30;14.60;;;;;;;;;;5071240;28;20473;-78
2022/11/14 08:56:16;;;;;;;20.13;15.27;;;;;;;;;;5071766;28;20444;-77
2022/11/14 08:58:43;;;;;;;14.97;13.37;;;;;;;;;;5071697;28;20466;-77
2022/11/14 09:01:10;;;;;;;16.50;14.70;;;;;;;;;;5071741;28;20794;-78
2022/11/14 09:03:37;;;;;;;15.00;11.40;;;;;;;;;;5071384;28;20468;-76
2022/11/14 09:06:04;;;;;;;12.73;10.27;;;;;;;;;;5071857;28;20452;-77
2022/11/14 09:08:31;;;;;;;16.67;10.70;;;;;;;;;;5071512;28;20527;-78
2022/11/14 09:11:01;;;;;;;12.33;10.53;;;;;;;;;;5071607;28;20469;-77
2022/11/14 09:13:29;;;;;;;10.13;8.13;;;;;;;;;;5070494;28;20468;-77
2022/11/14 09:15:56;;;;;;;9.37;8.10;;;;;;;;;;5071408;28;20449;-76
2022/11/14 09:18:24;;;;;;;10.13;7.30;;;;;;;;;;5071679;28;20812;-76
2022/11/14 09:20:51;;;;;;;6.70;6.07;;;;;;;;;;5071575;28;20811;-77
2022/11/14 09:23:18;;;;;;;8.43;5.90;;;;;;;;;;5071232;28;20477;-76
2022/11/14 09:25:45;;;;;;;8.33;6.40;;;;;;;;;;5078391;28;20455;-77
2022/11/14 09:28:12;;;;;;;6.30;5.70;;;;;;;;;;5081525;28;20463;-76
2022/11/14 09:30:40;;;;;;;6.73;5.70;;;;;;;;;;5080886;28;20490;-78
2022/11/14 09:33:07;;;;;;;6.43;4.93;;;;;;;;;;5080123;28;20465;-75
2022/11/14 09:35:36;;;;;;;5.13;4.73;;;;;;;;;;5077530;28;20444;-76
2022/11/14 09:38:04;;;;;;;5.10;4.60;;;;;;;;;;5074656;28;20539;-76
2022/11/14 09:40:32;;;;;;;5.17;4.37;;;;;;;;;;5074521;28;20438;-76
2022/11/14 09:43:18;;;;;;;5.93;5.40;;;;;;;;;;5070458;28;20466;-76
2022/11/14 09:45:50;;;;;;;6.00;5.60;;;;;;;;;;5070885;28;20436;-78
2022/11/14 09:48:19;;;;;;;8.30;6.90;;;;;;;;;;5070495;28;20769;-77
2022/11/14 09:50:48;;;;;;;19.07;15.50;;;;;;;;;;5071643;28;20478;-78
2022/11/14 09:53:20;;;;;;;17.60;15.70;;;;;;;;;;5072683;28;20472;-78
2022/11/14 09:55:47;;;;;;;19.53;17.03;;;;;;;;;;5072768;28;20480;-76
2022/11/14 09:58:17;;;;;;;22.97;15.83;;;;;;;;;;5077851;28;20451;-76
2022/11/14 10:00:48;;;;;;;21.27;17.20;;;;;;;;;;5084784;28;20425;-77
2022/11/14 10:03:19;;;;;;;18.90;16.87;;;;;;;;;;5070998;28;20473;-78
2022/11/14 10:05:53;;;;;;;19.00;16.90;;;;;;;;;;5071292;28;20570;-77
2022/11/14 10:08:27;;;;;;;20.10;16.10;;;;;;;;;;5071519;28;20526;-77
2022/11/14 10:10:56;;;;;;;19.13;16.37;;;;;;;;;;5071810;28;20468;-77
2022/11/14 10:13:33;;;;;;;18.23;16.03;;;;;;;;;;5090960;28;20471;-77
2022/11/14 10:16:05;;;;;;;19.37;17.37;;;;;;;;;;5094815;28;20524;-76
2022/11/14 10:18:40;;;;;;;17.60;15.90;;;;;;;;;;5096578;28;20425;-76
2022/11/14 10:21:13;;;;;;;18.43;16.53;;;;;;;;;;5095974;28;20564;-77
2022/11/14 10:23:46;;;;;;;16.10;14.40;;;;;;;;;;5096948;28;20464;-78
2022/11/14 10:26:18;;;;;;;15.20;13.57;;;;;;;;;;5097488;28;20577;-77
2022/11/14 10:28:49;;;;;;;15.30;13.80;;;;;;;;;;5096024;28;20443;-77
2022/11/14 10:31:23;;;;;;;16.87;15.23;;;;;;;;;;5094518;28;20484;-78
2022/11/14 10:33:56;;;;;;;14.37;13.07;;;;;;;;;;5077674;28;20464;-78
2022/11/14 10:36:29;;;;;;;14.50;13.00;;;;;;;;;;5074124;28;20449;-77
2022/11/14 10:39:02;;;;;;;13.03;11.83;;;;;;;;;;5074290;28;20474;-78
2022/11/14 10:41:29;;;;;;;12.87;11.67;;;;;;;;;;5077887;28;20444;-77
2022/11/14 10:43:56;;;;;;;15.23;12.17;;;;;;;;;;5075457;28;20463;-76
2022/11/14 10:46:25;;;;;;;11.90;10.70;;;;;;;;;;5075420;28;20458;-77
2022/11/14 10:48:54;;;;;;;9.60;8.10;;;;;;;;;;5070410;28;20497;-78
2022/11/14 10:51:23;;;;;;;10.47;9.47;;;;;;;;;;5069764;28;20476;-78
2022/11/14 10:53:52;;;;;;;9.60;8.70;;;;;;;;;;5069335;28;20461;-77
2022/11/14 10:56:19;;;;;;;12.50;11.40;;;;;;;;;;5068556;28;20451;-76
2022/11/14 10:58:46;;;;;;;11.60;10.50;;;;;;;;;;5052120;28;20462;-78
2022/11/14 11:01:43;;;;;;;10.53;9.43;;;;;;;;;;5051325;28;20445;-78
2022/11/14 11:04:20;;;;;;;10.63;9.53;;;;;;;;;;5010582;28;20459;-77
2022/11/14 11:06:47;;;;;;;12.90;9.30;;;;;;;;;;5046223;28;21019;-78
2022/11/14 11:12:01;;;;;;;9.17;8.33;;;;;;;;;;5053474;28;20480;-76
2022/11/14 11:14:29;;;;;;;8.43;7.83;;;;;;;;;;5053298;28;21273;-77
2022/11/14 11:17:08;;;;;;;8.17;6.77;;;;;;;;;;5053381;28;20445;-76
2022/11/14 11:19:37;;;;;;;7.03;6.43;;;;;;;;;;5053613;28;20463;-78
2022/11/14 11:22:04;;;;;;;7.33;6.50;;;;;;;;;;5053451;28;20442;-78
2022/11/14 11:24:32;;;;;;;7.90;7.20;;;;;;;;;;5052854;28;20469;-78
2022/11/14 11:27:14;;;;;;;11.07;8.80;;;;;;;;;;5053828;28;20449;-77
2022/11/14 11:29:41;;;;;;;7.30;5.93;;;;;;;;;;5051725;28;20457;-77
2022/11/14 11:32:08;;;;;;;8.27;7.47;;;;;;;;;;5055585;28;20480;-77
2022/11/14 11:34:37;;;;;;;6.47;5.17;;;;;;;;;;5052745;28;20835;-78
2022/11/14 11:37:06;;;;;;;6.07;5.57;;;;;;;;;;5055282;28;20441;-77
2022/11/14 11:39:36;;;;;;;4.43;4.13;;;;;;;;;;5053686;28;20807;-78
2022/11/14 11:42:05;;;;;;;4.57;4.27;;;;;;;;;;5053030;28;21020;-76
2022/11/14 11:44:35;;;;;;;3.97;3.67;;;;;;;;;;5053120;28;20511;-77
2022/11/14 11:47:04;;;;;;;3.60;3.30;;;;;;;;;;5053429;28;20807;-77
2022/11/14 11:49:37;;;;;;;4.30;3.47;;;;;;;;;;5053410;28;20453;-77
2022/11/14 11:52:11;;;;;;;3.37;3.10;;;;;;;;;;5053281;28;20458;-77
2022/11/14 11:54:44;;;;;;;2.70;2.50;;;;;;;;;;5052197;28;20473;-77
2022/11/14 11:57:14;;;;;;;2.90;2.70;;;;;;;;;;5052882;28;20791;-78
2022/11/14 11:59:43;;;;;;;3.67;2.80;;;;;;;;;;5052628;28;20953;-77
2022/11/14 12:02:18;;;;;;;2.37;2.27;;;;;;;;;;5052794;28;20437;-77
2022/11/14 12:04:45;;;;;;;3.73;2.80;;;;;;;;;;5052610;28;20472;-79
2022/11/14 12:07:15;;;;;;;2.73;2.60;;;;;;;;;;5053369;28;20500;-77
2022/11/14 12:09:42;;;;;;;2.80;2.60;;;;;;;;;;5052695;28;20441;-78
2022/11/14 12:12:15;;;;;;;5.80;2.80;;;;;;;;;;5052229;28;20473;-78
2022/11/14 12:14:52;;;;;;;3.17;2.87;;;;;;;;;;5052418;28;20468;-76
2022/11/14 12:17:32;;;;;;;2.67;2.47;;;;;;;;;;5053630;28;20564;-77
2022/11/14 12:20:14;;;;;;;2.60;2.40;;;;;;;;;;5052872;28;20437;-77
2022/11/14 12:22:59;;;;;;;4.10;2.90;;;;;;;;;;5051633;28;20445;-77
2022/11/14 12:25:40;;;;;;;2.43;2.20;;;;;;;;;;5042341;28;20450;-78
2022/11/14 12:28:22;;;;;;;4.60;2.80;;;;;;;;;;5053060;28;20425;-79
2022/11/14 12:30:51;;;;;;;5.00;2.40;;;;;;;;;;5056556;28;20536;-77
2022/11/14 12:33:22;;;;;;;2.80;2.60;;;;;;;;;;5075660;28;20527;-77
2022/11/14 12:35:51;;;;;;;3.50;3.07;;;;;;;;;;5076919;28;20437;-78
2022/11/14 12:38:19;;;;;;;2.40;2.20;;;;;;;;;;5073002;28;20456;-77
2022/11/14 12:40:52;;;;;;;3.20;2.60;;;;;;;;;;5073031;28;20444;-77
2022/11/14 12:43:30;;;;;;;4.00;2.30;;;;;;;;;;5072216;28;20464;-77
2022/11/14 12:46:01;;;;;;;2.67;2.47;;;;;;;;;;5072573;28;20436;-77
2022/11/14 12:48:34;;;;;;;2.30;2.20;;;;;;;;;;5075665;28;20436;-78
2022/11/14 12:51:02;;;;;;;2.63;2.43;;;;;;;;;;5076146;28;20579;-78
2022/11/14 12:53:40;;;;;;;4.90;2.30;;;;;;;;;;5073899;28;20491;-78
2022/11/14 12:56:23;;;;;;;5.50;2.23;;;;;;;;;;5077181;28;20815;-78
2022/11/14 12:59:07;;;;;;;5.27;2.50;;;;;;;;;;5074456;28;20772;-78
2022/11/14 13:01:45;;;;;;;2.83;2.40;;;;;;;;;;5073773;28;20469;-76
2022/11/14 13:04:23;;;;;;;3.23;2.10;;;;;;;;;;5074013;28;20472;-78
2022/11/14 13:06:56;;;;;;;1.90;1.80;;;;;;;;;;5072039;28;20447;-77
2022/11/14 13:09:33;;;;;;;1.97;1.87;;;;;;;;;;5072170;28;20925;-78
2022/11/14 13:23:56;;;;;;;2.70;2.50;;;;;;;;;;5094706;28;20535;-78
2022/11/14 13:26:51;;;;;;;1.87;1.77;;;;;;;;;;5098515;28;20452;-77
2022/11/14 13:29:36;;;;;;;2.10;2.00;;;;;;;;;;5061795;28;20503;-78
2022/11/14 13:32:09;;;;;;;2.53;2.30;;;;;;;;;;5077782;28;20480;-77
2022/11/14 13:34:39;;;;;;;2.23;2.13;;;;;;;;;;5072094;28;20468;-77
2022/11/14 13:37:11;;;;;;;2.67;2.50;;;;;;;;;;5071553;28;20547;-78
2022/11/14 13:39:43;;;;;;;2.37;2.17;;;;;;;;;;5071945;28;20433;-78
2022/11/14 13:42:22;;;;;;;4.20;3.17;;;;;;;;;;5071904;28;20420;-78
2022/11/14 13:45:13;;;;;;;2.30;2.10;;;;;;;;;;5071431;28;20460;-78
2022/11/14 13:47:51;;;;;;;2.47;2.33;;;;;;;;;;5072443;28;20432;-78
2022/11/14 13:50:19;;;;;;;2.70;2.50;;;;;;;;;;5071669;28;20920;-77
2022/11/14 13:52:47;;;;;;;2.40;2.30;;;;;;;;;;5071138;28;20805;-77
2022/11/14 13:55:20;;;;;;;3.63;2.37;;;;;;;;;;5071340;28;20444;-78
2022/11/14 13:57:53;;;;;;;2.47;2.13;;;;;;;;;;5072232;28;20441;-77
2022/11/14 14:00:20;;;;;;;3.57;2.33;;;;;;;;;;5072445;28;20493;-77
2022/11/14 14:03:03;;;;;;;2.40;2.30;;;;;;;;;;5083207;28;20448;-77
2022/11/14 14:05:33;;;;;;;2.90;2.70;;;;;;;;;;5091406;28;20496;-76
2022/11/14 14:08:09;;;;;;;2.93;2.73;;;;;;;;;;5094789;28;20492;-77
2022/11/14 14:10:41;;;;;;;3.23;2.80;;;;;;;;;;5094997;28;20457;-77
2022/11/14 14:13:14;;;;;;;3.43;2.90;;;;;;;;;;5083086;28;20525;-78
2022/11/14 14:15:45;;;;;;;6.03;2.40;;;;;;;;;;5074581;28;20430;-79
2022/11/14 14:18:20;;;;;;;5.57;2.80;;;;;;;;;;5069872;28;20758;-78
2022/11/14 14:20:48;;;;;;;7.20;2.97;;;;;;;;;;5052573;28;20433;-77
2022/11/14 14:23:23;;;;;;;3.47;2.50;;;;;;;;;;5051384;28;20854;-77
2022/11/14 14:25:55;;;;;;;3.30;2.93;;;;;;;;;;5054288;28;20428;-79
2022/11/14 14:28:25;;;;;;;5.03;2.90;;;;;;;;;;5054268;28;20453;-78
2022/11/14 14:31:02;;;;;;;9.00;3.67;;;;;;;;;;5052794;28;20460;-76
2022/11/14 14:33:39;;;;;;;5.23;3.00;;;;;;;;;;5051370;28;20472;-76
2022/11/14 14:36:16;;;;;;;3.80;2.73;;;;;;;;;;5053430;28;20437;-77
2022/11/14 14:38:44;;;;;;;5.10;3.33;;;;;;;;;;5056049;28;20446;-78
2022/11/14 14:41:13;;;;;;;4.33;3.40;;;;;;;;;;5061887;28;20805;-78
2022/11/14 14:43:42;;;;;;;3.60;3.07;;;;;;;;;;5061892;28;20492;-76
2022/11/14 14:46:09;;;;;;;3.60;3.20;;;;;;;;;;5074908;28;20440;-78
2022/11/14 14:48:40;;;;;;;4.07;2.93;;;;;;;;;;5075705;28;20447;-76
2022/11/14 14:51:13;;;;;;;4.17;3.77;;;;;;;;;;5056449;28;20482;-77